Buffalo Creek, Colorado
Current Conditions -  °F | °C
As of 8:53 PM on Sunday 25 Jan 2015 (Local Time) from KAPA Reporting Station
Few Clouds Few Clouds  
Wind Chill: 35°   Ceiling: Unl
Heat Index: 39°   Visibility: 10mi
Dew Point: 24°   Wind: 6mph
Humidity: 55%   Direction: 240°WSW
Pressure: 30.21"   Gusts: NA
Location:  39.39°N, 105.27°W
Report Text: KAPA 260353Z 24005KT 10SM FEW200 04/M04 A3021 RMK AO2 SLP229 T00391044
Loading
Personal Weather Stations






























Interactive Weather Map New forecast layout! Learn more

10-Day Weather Forecast

Advertisements
Track Severe Weather on mobile